createdAt,value
2019-01-19T00:02:37.399Z,93.70
2019-01-19T00:06:02.344Z,93.70
2019-01-19T00:08:49.349Z,93.80
2019-01-19T00:12:06.236Z,94.00
2019-01-19T00:15:08.905Z,94.20
2019-01-19T00:18:25.683Z,94.30
2019-01-19T00:21:03.305Z,94.30
2019-01-19T00:24:25.490Z,94.70
2019-01-19T00:27:20.289Z,94.80
2019-01-19T00:30:26.173Z,94.80
2019-01-19T00:33:23.477Z,94.90
2019-01-19T00:36:20.375Z,95.20
2019-01-19T00:39:25.546Z,95.10
2019-01-19T00:42:23.253Z,95.10
2019-01-19T00:45:08.198Z,95.30
2019-01-19T00:48:17.223Z,95.50
2019-01-19T00:51:29.878Z,95.60
2019-01-19T00:54:06.063Z,95.70
2019-01-19T00:57:09.826Z,95.70
2019-01-19T00:59:43.731Z,95.70
2019-01-19T01:02:31.137Z,95.80
2019-01-19T01:05:41.852Z,95.80
2019-01-19T01:08:55.290Z,95.90
2019-01-19T01:12:00.650Z,96.00
2019-01-19T01:15:22.586Z,96.10
2019-01-19T01:18:03.519Z,96.20
2019-01-19T01:20:43.560Z,96.10
2019-01-19T01:23:52.945Z,96.10
2019-01-19T01:26:43.684Z,96.20
2019-01-19T01:29:53.666Z,96.40
2019-01-19T01:33:02.605Z,96.40
2019-01-19T01:36:05.602Z,96.50
2019-01-19T01:39:00.050Z,96.50
2019-01-19T01:42:02.093Z,96.60
2019-01-19T01:45:05.728Z,96.70
2019-01-19T01:48:10.590Z,96.70
2019-01-19T01:50:50.510Z,96.60
2019-01-19T01:54:00.674Z,96.70
2019-01-19T01:56:32.464Z,96.70
2019-01-19T01:59:14.748Z,96.70
2019-01-19T02:01:57.338Z,96.70
2019-01-19T02:05:06.472Z,96.60
2019-01-19T02:08:15.828Z,96.70
2019-01-19T02:11:32.562Z,96.60
2019-01-19T02:14:41.634Z,96.70
2019-01-19T02:17:37.929Z,96.70
2019-01-19T02:20:43.117Z,96.60
2019-01-19T02:23:53.031Z,96.60
2019-01-19T02:27:11.200Z,96.60
2019-01-19T02:30:02.883Z,96.70
2019-01-19T02:33:04.600Z,96.50
2019-01-19T02:36:03.136Z,96.50
2019-01-19T02:39:04.237Z,96.60
2019-01-19T02:42:07.671Z,96.90
2019-01-19T02:45:26.632Z,96.90
2019-01-19T02:48:36.507Z,96.80
2019-01-19T02:51:31.443Z,97.10
2019-01-19T02:54:23.344Z,97.30
2019-01-19T02:57:47.131Z,97.30
2019-01-19T03:01:06.572Z,97.50
2019-01-19T03:04:22.763Z,97.60
2019-01-19T03:07:35.307Z,97.70
2019-01-19T03:10:28.813Z,97.70
2019-01-19T03:13:54.568Z,97.60
2019-01-19T03:17:23.041Z,97.50
2019-01-19T03:20:34.180Z,97.30
2019-01-19T03:23:59.622Z,97.10
2019-01-19T03:27:18.186Z,96.90
2019-01-19T03:30:17.386Z,96.80
2019-01-19T03:33:18.326Z,96.50
2019-01-19T03:36:34.310Z,96.30
2019-01-19T03:39:44.772Z,96.10
2019-01-19T03:42:46.480Z,95.80
2019-01-19T03:45:33.200Z,95.60
2019-01-19T03:48:57.594Z,95.30
2019-01-19T03:51:52.872Z,95.30
2019-01-19T03:54:48.324Z,95.40
2019-01-19T03:58:01.728Z,95.30
2019-01-19T04:01:02.390Z,95.10
2019-01-19T04:03:51.405Z,94.90
2019-01-19T04:06:53.730Z,94.80
2019-01-19T04:09:57.329Z,94.70
2019-01-19T04:12:39.376Z,94.50
2019-01-19T04:15:46.877Z,94.40
2019-01-19T04:18:45.396Z,94.30
2019-01-19T04:21:46.945Z,94.10
2019-01-19T04:24:23.564Z,94.00
2019-01-19T04:26:56.076Z,93.70
2019-01-19T04:29:25.541Z,93.90
2019-01-19T04:31:54.992Z,93.60
2019-01-19T04:34:24.752Z,93.50
2019-01-19T04:36:54.292Z,93.60
2019-01-19T04:39:23.736Z,93.30
2019-01-19T04:41:53.245Z,93.50
2019-01-19T04:44:22.693Z,93.40
2019-01-19T04:46:52.175Z,93.50
2019-01-19T04:49:21.628Z,93.40
2019-01-19T04:51:51.119Z,93.30
2019-01-19T04:54:20.552Z,93.50
2019-01-19T04:56:50.053Z,93.50
2019-01-19T04:59:19.538Z,93.40
2019-01-19T05:01:48.990Z,93.20
2019-01-19T05:04:18.518Z,93.20
2019-01-19T05:06:47.968Z,93.20
2019-01-19T05:09:17.435Z,93.00
2019-01-19T05:11:46.930Z,93.00
2019-01-19T05:14:16.388Z,93.10
2019-01-19T05:16:45.853Z,92.90
2019-01-19T05:19:15.337Z,93.00
2019-01-19T05:21:44.778Z,92.80
2019-01-19T05:24:14.207Z,92.80
2019-01-19T05:26:43.727Z,92.90
2019-01-19T05:29:13.177Z,92.70
2019-01-19T05:31:42.623Z,92.60
2019-01-19T05:34:12.141Z,92.60
2019-01-19T05:36:41.583Z,92.70
2019-01-19T05:39:11.011Z,92.70
2019-01-19T05:41:40.489Z,92.70
2019-01-19T05:44:09.994Z,92.90
2019-01-19T05:46:39.473Z,92.70
2019-01-19T05:49:08.914Z,92.50
2019-01-19T05:51:41.327Z,92.50
2019-01-19T05:54:10.779Z,92.60
2019-01-19T05:56:40.223Z,92.50
2019-01-19T05:59:09.710Z,92.50
2019-01-19T06:01:39.303Z,92.40
2019-01-19T06:04:08.747Z,92.40
2019-01-19T06:06:46.364Z,92.40
2019-01-19T06:09:09.709Z,92.40
2019-01-19T06:11:39.215Z,92.20
2019-01-19T06:14:08.658Z,92.20
2019-01-19T06:16:38.173Z,92.30
2019-01-19T06:19:07.954Z,92.10
2019-01-19T06:21:43.774Z,92.10
2019-01-19T06:24:13.252Z,92.20
2019-01-19T06:26:42.710Z,92.00
2019-01-19T06:29:12.212Z,92.10
2019-01-19T06:31:41.642Z,92.10
2019-01-19T06:34:11.150Z,92.00
2019-01-19T06:36:40.851Z,91.90
2019-01-19T06:39:10.445Z,91.80
2019-01-19T06:41:39.964Z,91.70
2019-01-19T06:44:09.802Z,91.70
2019-01-19T06:46:39.335Z,91.70
2019-01-19T06:49:08.873Z,91.70
2019-01-19T06:51:38.896Z,91.60
2019-01-19T06:54:08.806Z,91.50
2019-01-19T06:56:38.260Z,91.30
2019-01-19T06:59:07.720Z,91.10
2019-01-19T07:01:37.236Z,91.40
2019-01-19T07:04:06.806Z,91.10
2019-01-19T07:06:36.275Z,91.20
2019-01-19T07:09:08.254Z,91.30
2019-01-19T07:11:37.924Z,91.40
2019-01-19T07:14:07.390Z,91.50
2019-01-19T07:16:36.876Z,90.90
2019-01-19T07:19:06.310Z,91.00
2019-01-19T07:21:35.770Z,91.00
2019-01-19T07:24:05.255Z,90.90
2019-01-19T07:26:34.717Z,90.80
2019-01-19T07:29:05.493Z,90.70
2019-01-19T07:31:35.102Z,90.40
2019-01-19T07:34:04.551Z,90.30
2019-01-19T07:36:33.996Z,90.40
2019-01-19T07:39:03.497Z,89.90
2019-01-19T07:41:35.146Z,89.10
2019-01-19T07:44:04.628Z,88.40
2019-01-19T07:46:36.551Z,88.50
2019-01-19T07:49:06.012Z,88.10
2019-01-19T07:51:35.437Z,87.90
2019-01-19T07:54:04.920Z,87.50
2019-01-19T07:56:34.362Z,87.30
2019-01-19T07:59:06.095Z,87.60
2019-01-19T08:01:35.579Z,88.50
2019-01-19T08:04:05.029Z,87.60
2019-01-19T08:06:34.493Z,87.70
2019-01-19T08:09:05.509Z,87.80
2019-01-19T08:11:34.957Z,87.70
2019-01-19T08:14:04.671Z,87.70
2019-01-19T08:16:35.786Z,87.40
2019-01-19T08:19:05.263Z,87.70
2019-01-19T08:21:34.734Z,87.20
2019-01-19T08:24:05.461Z,86.90
2019-01-19T08:26:34.920Z,86.10
2019-01-19T08:29:04.370Z,85.60
2019-01-19T08:31:34.161Z,85.80
2019-01-19T08:34:04.153Z,85.20
2019-01-19T08:36:33.653Z,84.70
2019-01-19T08:39:03.947Z,84.40
2019-01-19T08:41:33.413Z,83.40
2019-01-19T08:44:05.111Z,81.50
2019-01-19T08:46:34.610Z,81.30
2019-01-19T08:49:04.085Z,82.00
2019-01-19T08:51:33.570Z,82.90
2019-01-19T08:54:05.024Z,83.60
2019-01-19T08:56:34.489Z,84.10
2019-01-19T08:59:05.993Z,84.20
2019-01-19T09:01:35.452Z,84.30
2019-01-19T09:04:04.940Z,83.60
2019-01-19T09:06:34.424Z,82.40
2019-01-19T09:09:05.810Z,82.30
2019-01-19T09:11:35.273Z,82.30
2019-01-19T09:14:04.917Z,81.70
2019-01-19T09:16:39.571Z,80.90
2019-01-19T09:19:05.474Z,80.80
2019-01-19T09:21:34.980Z,80.40
2019-01-19T09:24:10.786Z,80.50
2019-01-19T09:26:40.307Z,79.60
2019-01-19T09:29:09.868Z,78.70
2019-01-19T09:31:39.304Z,77.80
2019-01-19T09:34:08.787Z,77.20
2019-01-19T09:36:38.284Z,77.40
2019-01-19T09:39:11.360Z,77.70
2019-01-19T09:41:40.859Z,77.50
2019-01-19T09:44:10.650Z,78.50
2019-01-19T09:46:40.126Z,79.30
2019-01-19T09:49:09.599Z,80.00
2019-01-19T09:51:39.142Z,80.50
2019-01-19T09:54:08.662Z,79.10
2019-01-19T09:56:38.116Z,79.30
2019-01-19T09:59:07.564Z,79.70
2019-01-19T10:01:37.085Z,80.70
2019-01-19T10:04:06.618Z,81.00
2019-01-19T10:06:36.504Z,80.80
2019-01-19T10:09:08.388Z,80.30
2019-01-19T10:11:37.846Z,80.10
2019-01-19T10:14:07.282Z,79.00
2019-01-19T10:16:36.777Z,78.20
2019-01-19T10:19:06.250Z,77.70
2019-01-19T10:21:36.127Z,77.80
2019-01-19T10:24:05.714Z,77.90
2019-01-19T10:26:35.157Z,78.30
2019-01-19T10:29:05.094Z,79.10
2019-01-19T10:31:34.620Z,79.80
2019-01-19T10:34:04.092Z,80.70
2019-01-19T10:36:34.949Z,81.10
2019-01-19T10:39:08.659Z,81.40
2019-01-19T10:41:41.126Z,81.90
2019-01-19T10:44:09.216Z,81.00
2019-01-19T10:46:38.719Z,80.80
2019-01-19T10:49:08.178Z,80.90
2019-01-19T10:51:37.662Z,80.40
2019-01-19T10:54:09.007Z,80.50
2019-01-19T10:56:38.451Z,80.90
2019-01-19T10:59:07.889Z,82.00
2019-01-19T11:01:37.491Z,81.50
2019-01-19T11:04:08.095Z,80.20
2019-01-19T11:06:37.538Z,79.00
2019-01-19T11:09:08.151Z,78.60
2019-01-19T11:11:37.641Z,77.20
2019-01-19T11:14:08.087Z,73.50
2019-01-19T11:16:37.599Z,72.30
2019-01-19T11:19:07.098Z,71.30
2019-01-19T11:21:36.540Z,69.50
2019-01-19T11:24:05.997Z,69.60
2019-01-19T11:26:35.481Z,69.60
2019-01-19T11:29:04.986Z,70.70
2019-01-19T11:31:36.520Z,71.40
2019-01-19T11:34:05.989Z,72.10
2019-01-19T11:36:35.459Z,72.50
2019-01-19T11:39:07.873Z,73.50
2019-01-19T11:41:37.346Z,74.30
2019-01-19T11:44:06.880Z,74.90
2019-01-19T11:46:36.425Z,74.90
2019-01-19T11:49:06.024Z,75.10
2019-01-19T11:51:35.553Z,75.20
2019-01-19T11:54:06.016Z,76.00
2019-01-19T11:56:35.470Z,77.10
2019-01-19T11:59:04.945Z,78.20
2019-01-19T12:01:36.662Z,78.00
2019-01-19T12:04:06.379Z,77.00
2019-01-19T12:06:35.845Z,77.80
2019-01-19T12:09:09.002Z,77.80
2019-01-19T12:11:38.512Z,77.70
2019-01-19T12:14:08.350Z,78.50
2019-01-19T12:16:37.800Z,78.10
2019-01-19T12:19:08.888Z,76.90
2019-01-19T12:21:39.368Z,77.40
2019-01-19T12:24:08.903Z,77.10
2019-01-19T12:26:38.380Z,77.00
2019-01-19T12:29:08.308Z,76.20
2019-01-19T12:31:37.806Z,75.90
2019-01-19T12:34:07.302Z,75.50
2019-01-19T12:36:36.730Z,75.30
2019-01-19T12:39:09.297Z,74.90
2019-01-19T12:41:38.939Z,74.20
2019-01-19T12:44:11.230Z,72.80
2019-01-19T12:46:40.704Z,73.20
2019-01-19T12:49:10.196Z,73.30
2019-01-19T12:51:39.646Z,73.70
2019-01-19T12:54:09.145Z,73.80
2019-01-19T12:56:38.622Z,74.30
2019-01-19T12:59:08.068Z,74.60
2019-01-19T13:01:37.493Z,74.50
2019-01-19T13:04:08.639Z,74.80
2019-01-19T13:07:06.858Z,74.70
2019-01-19T13:09:45.933Z,75.70
2019-01-19T13:12:42.933Z,74.80
2019-01-19T13:15:58.747Z,74.60
2019-01-19T13:19:15.717Z,74.70
2019-01-19T13:22:38.529Z,74.20
2019-01-19T13:25:41.457Z,74.60
2019-01-19T13:29:10.543Z,75.10
2019-01-19T13:31:48.581Z,75.40
2019-01-19T13:34:40.819Z,74.50
2019-01-19T13:38:03.818Z,74.30
2019-01-19T13:41:09.796Z,76.10
2019-01-19T13:44:20.417Z,77.40
2019-01-19T13:47:20.533Z,76.90
2019-01-19T13:50:21.660Z,77.70
2019-01-19T13:53:34.923Z,77.60
2019-01-19T13:56:33.206Z,77.70
2019-01-19T13:59:40.045Z,77.80
2019-01-19T14:02:52.483Z,77.20
2019-01-19T14:05:43.654Z,77.70
2019-01-19T14:09:21.699Z,77.30
2019-01-19T14:12:30.529Z,78.00
2019-01-19T14:15:13.092Z,77.30
2019-01-19T14:18:10.882Z,77.20
2019-01-19T14:21:11.146Z,76.30
2019-01-19T14:24:01.108Z,76.60
2019-01-19T14:27:01.984Z,77.00
2019-01-19T14:30:17.376Z,77.00
2019-01-19T14:33:15.002Z,77.70
2019-01-19T14:36:19.129Z,78.70
2019-01-19T14:39:42.626Z,78.10
2019-01-19T14:42:33.277Z,78.10
2019-01-19T14:45:13.770Z,79.10
2019-01-19T14:48:15.162Z,79.70
2019-01-19T14:51:30.301Z,79.70
2019-01-19T14:54:32.664Z,79.20
2019-01-19T14:57:58.275Z,80.20
2019-01-19T15:01:17.882Z,80.10
2019-01-19T15:04:19.066Z,81.00
2019-01-19T15:07:25.116Z,81.00
2019-01-19T15:10:48.074Z,81.20
2019-01-19T15:13:58.608Z,80.90
2019-01-19T15:17:11.161Z,81.60
2019-01-19T15:20:11.908Z,81.80
2019-01-19T15:23:34.535Z,81.90
2019-01-19T15:26:57.056Z,81.90
2019-01-19T15:30:03.384Z,81.00
2019-01-19T15:33:32.370Z,81.30
2019-01-19T15:36:34.102Z,81.20
2019-01-19T15:39:35.760Z,81.50
2019-01-19T15:42:49.078Z,82.30
2019-01-19T15:45:54.847Z,83.00
2019-01-19T15:49:05.545Z,83.40
2019-01-19T15:52:18.144Z,84.00
2019-01-19T15:55:10.874Z,84.90
2019-01-19T15:58:12.790Z,85.00
2019-01-19T16:01:05.499Z,85.20
2019-01-19T16:04:16.001Z,84.90
2019-01-19T16:07:21.172Z,84.30
2019-01-19T16:10:34.559Z,84.60
2019-01-19T16:13:31.299Z,84.60
2019-01-19T16:16:34.764Z,85.10
2019-01-19T16:19:22.496Z,84.40
2019-01-19T16:22:47.974Z,85.20
2019-01-19T16:26:09.430Z,85.50
2019-01-19T16:29:07.521Z,85.60
2019-01-19T16:32:00.290Z,85.90
2019-01-19T16:35:29.331Z,86.20
2019-01-19T16:38:39.625Z,86.80
2019-01-19T16:41:34.610Z,86.90
2019-01-19T16:44:56.152Z,87.50
2019-01-19T16:47:51.857Z,88.00
2019-01-19T16:51:20.771Z,88.50
2019-01-19T16:54:16.957Z,88.80
2019-01-19T16:57:15.292Z,89.30
2019-01-19T17:00:07.321Z,89.50
2019-01-19T17:03:09.936Z,90.20
2019-01-19T17:06:28.246Z,90.10
2019-01-19T17:09:36.796Z,90.20
2019-01-19T17:12:45.131Z,90.40
2019-01-19T17:15:30.006Z,90.70
2019-01-19T17:18:28.815Z,90.80
2019-01-19T17:21:42.757Z,90.80
2019-01-19T17:24:51.012Z,90.90
2019-01-19T17:28:04.835Z,91.00
2019-01-19T17:31:13.239Z,91.10
2019-01-19T17:34:14.334Z,91.20
2019-01-19T17:36:59.512Z,91.30
2019-01-19T17:39:52.517Z,91.50
2019-01-19T17:42:52.155Z,91.60
2019-01-19T17:45:35.067Z,91.60
2019-01-19T17:48:40.139Z,91.80
2019-01-19T17:51:49.498Z,91.70
2019-01-19T17:54:49.059Z,91.90
2019-01-19T17:57:50.785Z,91.80
2019-01-19T18:01:01.308Z,91.70
2019-01-19T18:04:02.765Z,91.70
2019-01-19T18:06:48.147Z,91.60
2019-01-19T18:10:08.126Z,91.60
2019-01-19T18:12:55.101Z,91.70
2019-01-19T18:16:06.268Z,91.50
2019-01-19T18:19:05.183Z,91.40
2019-01-19T18:22:21.719Z,91.40
2019-01-19T18:25:18.832Z,91.30
2019-01-19T18:28:30.483Z,91.00
2019-01-19T18:31:46.061Z,90.90
2019-01-19T18:34:34.625Z,90.90
2019-01-19T18:37:39.663Z,90.90
2019-01-19T18:40:41.226Z,91.20
2019-01-19T18:43:36.648Z,91.20
2019-01-19T18:46:49.811Z,91.30
2019-01-19T18:49:44.587Z,91.30
2019-01-19T18:52:46.196Z,91.50
2019-01-19T18:55:58.470Z,91.50
2019-01-19T18:59:14.119Z,91.60
2019-01-19T19:01:59.799Z,91.60
2019-01-19T19:05:00.283Z,91.70
2019-01-19T19:07:54.024Z,91.90
2019-01-19T19:11:03.805Z,91.90
2019-01-19T19:14:29.266Z,92.30
2019-01-19T19:17:42.654Z,92.30
2019-01-19T19:20:43.594Z,92.30
2019-01-19T19:23:50.040Z,92.50
2019-01-19T19:27:09.224Z,92.50
2019-01-19T19:30:08.890Z,92.90
2019-01-19T19:32:48.667Z,93.10
2019-01-19T19:35:55.293Z,93.10
2019-01-19T19:39:27.285Z,93.10
2019-01-19T19:42:22.575Z,93.10
2019-01-19T19:45:45.206Z,93.30
2019-01-19T19:49:13.974Z,93.30
2019-01-19T19:52:06.130Z,93.10
2019-01-19T19:54:37.360Z,93.30
2019-01-19T19:57:06.925Z,93.30
2019-01-19T19:59:36.392Z,93.30
2019-01-19T20:02:05.881Z,93.40
2019-01-19T20:04:37.023Z,93.50
2019-01-19T20:07:06.656Z,93.80
2019-01-19T20:09:36.168Z,93.70
2019-01-19T20:12:08.331Z,93.90
2019-01-19T20:14:37.928Z,93.70
2019-01-19T20:17:08.358Z,93.60
2019-01-19T20:19:37.848Z,93.60
2019-01-19T20:22:07.414Z,93.70
2019-01-19T20:24:36.945Z,94.20
2019-01-19T20:27:06.408Z,94.20
2019-01-19T20:29:35.905Z,94.20
2019-01-19T20:32:06.490Z,94.20
2019-01-19T20:34:36.018Z,94.50
2019-01-19T20:37:05.829Z,94.60
2019-01-19T20:39:35.646Z,94.40
2019-01-19T20:42:05.481Z,94.20
2019-01-19T20:44:35.005Z,94.00
2019-01-19T20:47:04.889Z,94.00
2019-01-19T20:49:35.515Z,94.10
2019-01-19T20:52:06.417Z,94.10
2019-01-19T20:54:37.132Z,94.10
2019-01-19T20:57:06.609Z,94.10
2019-01-19T20:59:36.109Z,94.30
2019-01-19T21:02:06.796Z,94.50
2019-01-19T21:04:36.258Z,94.20
2019-01-19T21:07:07.917Z,94.20
2019-01-19T21:09:37.425Z,94.20
2019-01-19T21:12:06.897Z,94.30
2019-01-19T21:14:36.423Z,94.30
2019-01-19T21:17:07.025Z,94.40
2019-01-19T21:19:36.490Z,94.30
2019-01-19T21:22:06.375Z,94.60
2019-01-19T21:24:35.857Z,94.60
2019-01-19T21:27:06.737Z,94.80
2019-01-19T21:29:37.287Z,94.80
2019-01-19T21:32:06.828Z,94.70
2019-01-19T21:34:36.301Z,94.60
2019-01-19T21:37:08.091Z,94.60
2019-01-19T21:39:37.581Z,94.40
2019-01-19T21:42:07.038Z,94.50
2019-01-19T21:44:36.623Z,94.60
2019-01-19T21:47:06.453Z,94.70
2019-01-19T21:49:35.946Z,94.70
2019-01-19T21:52:05.948Z,94.70
2019-01-19T21:54:35.507Z,94.80
2019-01-19T21:57:07.230Z,94.70
2019-01-19T21:59:36.808Z,94.90
2019-01-19T22:02:06.263Z,95.00
2019-01-19T22:04:36.163Z,94.90
2019-01-19T22:07:05.800Z,94.80
2019-01-19T22:09:36.745Z,94.80
2019-01-19T22:12:06.298Z,94.80
2019-01-19T22:14:35.815Z,94.80
2019-01-19T22:17:05.548Z,94.50
2019-01-19T22:19:35.039Z,94.50
2019-01-19T22:22:04.907Z,94.80
2019-01-19T22:24:34.455Z,95.30
2019-01-19T22:27:07.059Z,95.20
2019-01-19T22:29:36.569Z,95.10
2019-01-19T22:32:06.063Z,95.00
2019-01-19T22:34:35.521Z,94.60
2019-01-19T22:37:05.450Z,94.40
2019-01-19T22:39:35.034Z,94.20
2019-01-19T22:42:04.674Z,94.30
2019-01-19T22:44:34.241Z,94.50
2019-01-19T22:47:03.730Z,94.70
2019-01-19T22:49:33.193Z,95.00
2019-01-19T22:52:02.732Z,95.00
2019-01-19T22:54:32.262Z,95.00
2019-01-19T22:57:01.722Z,95.00
2019-01-19T22:59:31.254Z,95.00
2019-01-19T23:02:12.068Z,95.10
2019-01-19T23:04:41.622Z,95.10
2019-01-19T23:07:11.086Z,95.10
2019-01-19T23:09:40.565Z,95.10
2019-01-19T23:12:10.096Z,95.10
2019-01-19T23:14:40.061Z,95.00
2019-01-19T23:17:09.504Z,94.90
2019-01-19T23:19:39.064Z,94.80
2019-01-19T23:22:08.535Z,94.80
2019-01-19T23:24:38.000Z,95.10
2019-01-19T23:27:08.106Z,94.70
2019-01-19T23:29:37.586Z,94.70
2019-01-19T23:32:07.041Z,94.80
2019-01-19T23:34:36.563Z,94.70
2019-01-19T23:37:08.103Z,94.60
2019-01-19T23:39:37.590Z,94.60
2019-01-19T23:42:07.555Z,94.50
2019-01-19T23:44:37.076Z,94.50
2019-01-19T23:47:06.663Z,94.50
2019-01-19T23:49:36.517Z,94.70
2019-01-19T23:52:07.225Z,94.80
2019-01-19T23:54:36.777Z,94.90
2019-01-19T23:57:06.620Z,95.20
2019-01-19T23:59:37.599Z,95.20
